Nautilus — ISPC — position and weather

sailwx.info

Track history (hours):
 
Tides and Currents Weather Stations Pressure Air Temp Water Temp Dewpoint Dewpoint Depression Visibility Wind Speed Wind Dir Waves Ship Positions

Nautilus

Last reported at 2014-Sep-01 14:09 UTC. Time now 2014-Sep-01 21:02 UTC.
Position N 42°49' E 010°12'.

Length 25 m.

Type: Passenger vessel. MMSI: 247205700.

Date/timePositionNaut miles runAvg speedWind from/ knotsBaromVisibWave heightAir tempDewpointWater temp
2014-Sep-01 14:09N 42°49' E 010°12'0 0.0
2014-Sep-01 13:33N 42°49' E 010°12'0 0.0
2014-Sep-01 12:33N 42°49' E 010°12'0 0.0
2014-Sep-01 11:20N 42°49' E 010°12'0 0.0
2014-Sep-01 10:23N 42°49' E 010°12'0 0.0
2014-Sep-01 08:31N 42°49' E 010°12'0 0.0
2014-Sep-01 07:33N 42°49' E 010°12'0 0.0
2014-Sep-01 06:17N 42°49' E 010°12'0 0.0
2014-Sep-01 05:16N 42°49' E 010°12'0 0.0
2014-Sep-01 04:33N 42°49' E 010°12'0 0.0
2014-Sep-01 03:31N 42°49' E 010°12'0 0.0
2014-Sep-01 01:24N 42°49' E 010°12'0 0.0
2014-Sep-01 00:34N 42°49' E 010°12'0 0.0
2014-Aug-31 23:33N 42°49' E 010°12'0 0.0
2014-Aug-31 22:33N 42°49' E 010°12'0 0.0
2014-Aug-31 21:32N 42°49' E 010°12'0 0.0
2014-Aug-31 20:27N 42°49' E 010°12'0 0.0
2014-Aug-31 19:26N 42°49' E 010°12'0 0.0
2014-Aug-31 18:34N 42°49' E 010°12'0 0.0
2014-Aug-31 17:31N 42°49' E 010°12'0 0.0
2014-Aug-31 16:33N 42°49' E 010°12'4 3.2
2014-Aug-31 15:22N 42°48' E 010°07'4 2.0
2014-Aug-31 13:30N 42°48' E 010°12'0 0.0
2014-Aug-31 12:33N 42°48' E 010°12'0 0.0
2014-Aug-31 00:26N 42°49' E 010°12'0 0.0
2014-Aug-30 22:27N 42°49' E 010°12'0 0.0
2014-Aug-30 20:32N 42°49' E 010°12'0 0.0
2014-Aug-30 19:30N 42°49' E 010°12'0 0.0
2014-Aug-30 18:34N 42°49' E 010°12'0 0.0
2014-Aug-30 17:33N 42°49' E 010°12'0 0.0
2014-Aug-30 16:34N 42°49' E 010°12'3 3.0
2014-Aug-30 15:33N 42°49' E 010°08'3 3.3
2014-Aug-30 14:32N 42°45' E 010°06'8 1.5
2014-Aug-30 09:17N 42°49' E 010°16'2 2.8
2014-Aug-30 08:25N 42°49' E 010°19'6 3.0
2014-Aug-30 06:33N 42°49' E 010°12'0 0.0
2014-Aug-30 05:34N 42°49' E 010°12'0 0.0
2014-Aug-30 04:33N 42°49' E 010°12'0 0.0
2014-Aug-30 02:33N 42°49' E 010°12'0 0.0
2014-Aug-30 00:32N 42°49' E 010°12'0 0.0
2014-Aug-29 23:33N 42°49' E 010°12'0 0.0
2014-Aug-29 18:31N 42°49' E 010°12'0 0.1
2014-Aug-29 17:26N 42°48' E 010°12'3 1.3
2014-Aug-29 15:33N 42°49' E 010°09'0 0.1
2014-Aug-29 14:33N 42°49' E 010°09'4 3.5
2014-Aug-29 13:33N 42°46' E 010°06'5 4.8
2014-Aug-29 12:31N 42°48' E 010°12'0 0.4
2014-Aug-29 11:33N 42°49' E 010°12'0 0.0
2014-Aug-28 20:33N 42°49' E 010°12'0 0.0
2014-Aug-28 19:33N 42°49' E 010°12'0 0.0
2014-Aug-28 18:24N 42°49' E 010°12'1 0.7
2014-Aug-28 17:33N 42°49' E 010°11'5 3.6
2014-Aug-28 16:16N 42°46' E 010°06'4 6.3
2014-Aug-28 15:33N 42°49' E 010°11'3 0.6
2014-Aug-28 11:26N 42°49' E 010°14'2 0.4
2014-Aug-28 07:08N 42°49' E 010°12'0 0.0
2014-Aug-28 02:19N 42°49' E 010°12'0 0.0
2014-Aug-28 01:27N 42°49' E 010°12'0 0.0
2014-Aug-27 23:25N 42°49' E 010°12'0 0.0
2014-Aug-27 19:26N 42°49' E 010°12'0 0.0
2014-Aug-27 18:33N 42°49' E 010°12'0 0.0
2014-Aug-27 17:32N 42°49' E 010°12'0 0.0
2014-Aug-27 15:27N 42°49' E 010°12'0 0.2
2014-Aug-27 14:31N 42°48' E 010°12'0 0.0
2014-Aug-27 13:33N 42°48' E 010°12'0 0.0
2014-Aug-27 12:32N 42°48' E 010°12'1 0.8
2014-Aug-27 11:32N 42°49' E 010°13'1 0.1
2014-Aug-27 04:26N 42°49' E 010°12'0 0.0
2014-Aug-27 02:33N 42°49' E 010°12'0 0.0
2014-Aug-27 01:33N 42°49' E 010°12'0 0.0
2014-Aug-26 20:28N 42°49' E 010°12'0 0.0
2014-Aug-26 19:29N 42°49' E 010°12'0 0.0
2014-Aug-26 18:33N 42°49' E 010°12'0 0.2
2014-Aug-26 17:31N 42°49' E 010°12'5 3.3
2014-Aug-26 16:08N 42°46' E 010°06'4 6.0
2014-Aug-26 15:33N 42°49' E 010°10'2 1.5
2014-Aug-26 14:32N 42°49' E 010°08'3 1.5
2014-Aug-26 12:33N 42°48' E 010°12'1 1.1
2014-Aug-26 11:33N 42°49' E 010°13'1 0.1
2014-Aug-26 04:05N 42°49' E 010°12'0 0.0
2014-Aug-26 02:19N 42°49' E 010°12'0 0.0
2014-Aug-25 16:30N 42°49' E 010°12'0 0.0
2014-Aug-23 22:32N 42°49' E 010°12'0 0.0
2014-Aug-23 02:32N 42°49' E 010°12'0 0.0
2014-Aug-23 01:33N 42°49' E 010°12'0 0.0
2014-Aug-23 00:32N 42°49' E 010°12'0 0.0
2014-Aug-22 23:21N 42°49' E 010°12'0 0.0
2014-Aug-22 22:28N 42°49' E 010°12'0 0.0
2014-Aug-22 21:32N 42°49' E 010°12'0 0.0
2014-Aug-22 20:33N 42°49' E 010°12'0 0.0
2014-Aug-22 19:30N 42°49' E 010°12'0 0.0
2014-Aug-22 18:26N 42°49' E 010°12'0 0.2
2014-Aug-22 17:33N 42°48' E 010°12'2 1.0
2014-Aug-22 15:33N 42°49' E 010°09'  
Track history (hours):
 
Tides and Currents Weather Stations Pressure Air Temp Water Temp Dewpoint Dewpoint Depression Visibility Wind Speed Wind Dir Waves Ship Positions

Nautilus

Last reported at 2014-Sep-01 14:09 UTC. Time now 2014-Sep-01 21:02 UTC.
Position N 42°49' E 010°12'.

Length 25 m.

Type: Passenger vessel. MMSI: 247205700.

Date/timePositionNaut miles runAvg speedWind from/ knotsBaromVisibWave heightAir tempDewpointWater temp
2014-Sep-01 14:09N 42°49' E 010°12'0 0.0
2014-Sep-01 13:33N 42°49' E 010°12'0 0.0
2014-Sep-01 12:33N 42°49' E 010°12'0 0.0
2014-Sep-01 11:20N 42°49' E 010°12'0 0.0
2014-Sep-01 10:23N 42°49' E 010°12'0 0.0
2014-Sep-01 08:31N 42°49' E 010°12'0 0.0
2014-Sep-01 07:33N 42°49' E 010°12'0 0.0
2014-Sep-01 06:17N 42°49' E 010°12'0 0.0
2014-Sep-01 05:16N 42°49' E 010°12'0 0.0
2014-Sep-01 04:33N 42°49' E 010°12'0 0.0
2014-Sep-01 03:31N 42°49' E 010°12'0 0.0
2014-Sep-01 01:24N 42°49' E 010°12'0 0.0
2014-Sep-01 00:34N 42°49' E 010°12'0 0.0
2014-Aug-31 23:33N 42°49' E 010°12'0 0.0
2014-Aug-31 22:33N 42°49' E 010°12'0 0.0
2014-Aug-31 21:32N 42°49' E 010°12'0 0.0
2014-Aug-31 20:27N 42°49' E 010°12'0 0.0
2014-Aug-31 19:26N 42°49' E 010°12'0 0.0
2014-Aug-31 18:34N 42°49' E 010°12'0 0.0
2014-Aug-31 17:31N 42°49' E 010°12'0 0.0
2014-Aug-31 16:33N 42°49' E 010°12'4 3.2
2014-Aug-31 15:22N 42°48' E 010°07'4 2.0
2014-Aug-31 13:30N 42°48' E 010°12'0 0.0
2014-Aug-31 12:33N 42°48' E 010°12'0 0.0
2014-Aug-31 00:26N 42°49' E 010°12'0 0.0
2014-Aug-30 22:27N 42°49' E 010°12'0 0.0
2014-Aug-30 20:32N 42°49' E 010°12'0 0.0
2014-Aug-30 19:30N 42°49' E 010°12'0 0.0
2014-Aug-30 18:34N 42°49' E 010°12'0 0.0
2014-Aug-30 17:33N 42°49' E 010°12'0 0.0
2014-Aug-30 16:34N 42°49' E 010°12'3 3.0
2014-Aug-30 15:33N 42°49' E 010°08'3 3.3
2014-Aug-30 14:32N 42°45' E 010°06'8 1.5
2014-Aug-30 09:17N 42°49' E 010°16'2 2.8
2014-Aug-30 08:25N 42°49' E 010°19'6 3.0
2014-Aug-30 06:33N 42°49' E 010°12'0 0.0
2014-Aug-30 05:34N 42°49' E 010°12'0 0.0
2014-Aug-30 04:33N 42°49' E 010°12'0 0.0
2014-Aug-30 02:33N 42°49' E 010°12'0 0.0
2014-Aug-30 00:32N 42°49' E 010°12'0 0.0
2014-Aug-29 23:33N 42°49' E 010°12'0 0.0
2014-Aug-29 18:31N 42°49' E 010°12'0 0.1
2014-Aug-29 17:26N 42°48' E 010°12'3 1.3
2014-Aug-29 15:33N 42°49' E 010°09'0 0.1
2014-Aug-29 14:33N 42°49' E 010°09'4 3.5
2014-Aug-29 13:33N 42°46' E 010°06'5 4.8
2014-Aug-29 12:31N 42°48' E 010°12'0 0.4
2014-Aug-29 11:33N 42°49' E 010°12'0 0.0
2014-Aug-28 20:33N 42°49' E 010°12'0 0.0
2014-Aug-28 19:33N 42°49' E 010°12'0 0.0
2014-Aug-28 18:24N 42°49' E 010°12'1 0.7
2014-Aug-28 17:33N 42°49' E 010°11'5 3.6
2014-Aug-28 16:16N 42°46' E 010°06'4 6.3
2014-Aug-28 15:33N 42°49' E 010°11'3 0.6
2014-Aug-28 11:26N 42°49' E 010°14'2 0.4
2014-Aug-28 07:08N 42°49' E 010°12'0 0.0
2014-Aug-28 02:19N 42°49' E 010°12'0 0.0
2014-Aug-28 01:27N 42°49' E 010°12'0 0.0
2014-Aug-27 23:25N 42°49' E 010°12'0 0.0
2014-Aug-27 19:26N 42°49' E 010°12'0 0.0
2014-Aug-27 18:33N 42°49' E 010°12'0 0.0
2014-Aug-27 17:32N 42°49' E 010°12'0 0.0
2014-Aug-27 15:27N 42°49' E 010°12'0 0.2
2014-Aug-27 14:31N 42°48' E 010°12'0 0.0
2014-Aug-27 13:33N 42°48' E 010°12'0 0.0
2014-Aug-27 12:32N 42°48' E 010°12'1 0.8
2014-Aug-27 11:32N 42°49' E 010°13'1 0.1
2014-Aug-27 04:26N 42°49' E 010°12'0 0.0
2014-Aug-27 02:33N 42°49' E 010°12'0 0.0
2014-Aug-27 01:33N 42°49' E 010°12'0 0.0
2014-Aug-26 20:28N 42°49' E 010°12'0 0.0
2014-Aug-26 19:29N 42°49' E 010°12'0 0.0
2014-Aug-26 18:33N 42°49' E 010°12'0 0.2
2014-Aug-26 17:31N 42°49' E 010°12'5 3.3
2014-Aug-26 16:08N 42°46' E 010°06'4 6.0
2014-Aug-26 15:33N 42°49' E 010°10'2 1.5
2014-Aug-26 14:32N 42°49' E 010°08'3 1.5
2014-Aug-26 12:33N 42°48' E 010°12'1 1.1
2014-Aug-26 11:33N 42°49' E 010°13'1 0.1
2014-Aug-26 04:05N 42°49' E 010°12'0 0.0
2014-Aug-26 02:19N 42°49' E 010°12'0 0.0
2014-Aug-25 16:30N 42°49' E 010°12'0 0.0
2014-Aug-23 22:32N 42°49' E 010°12'0 0.0
2014-Aug-23 02:32N 42°49' E 010°12'0 0.0
2014-Aug-23 01:33N 42°49' E 010°12'0 0.0
2014-Aug-23 00:32N 42°49' E 010°12'0 0.0
2014-Aug-22 23:21N 42°49' E 010°12'0 0.0
2014-Aug-22 22:28N 42°49' E 010°12'0 0.0
2014-Aug-22 21:32N 42°49' E 010°12'0 0.0
2014-Aug-22 20:33N 42°49' E 010°12'0 0.0
2014-Aug-22 19:30N 42°49' E 010°12'0 0.0
2014-Aug-22 18:26N 42°49' E 010°12'0 0.2
2014-Aug-22 17:33N 42°48' E 010°12'2 1.0
2014-Aug-22 15:33N 42°49' E 010°09'  

Dump ship's entire track history